Time;durP1;ratioP1;P1;durP2;ratioP2;P2;SDS_P1;SDS_P2;PMS_P1;PMS_P2;Temp;Humidity;BMP_temperature;BMP_pressure;BME280_temperature;BME280_humidity;BME280_pressure;Samples;Min_cycle;Max_cycle;Signal;HPM_P1;HPM_P2
2022/12/01 00:00:40;;;;;;;;;;;6.60;86.10;;;;;;5094475;28;20338;-88
2022/12/01 00:03:06;;;;;;;;;;;6.50;85.60;;;;;;5094461;28;20317;-88
2022/12/01 00:05:31;;;;;;;;;;;6.40;86.10;;;;;;5094340;28;20039;-88
2022/12/01 00:07:58;;;;;;;;;;;6.40;86.40;;;;;;5093970;28;19947;-88
2022/12/01 00:10:27;;;;;;;;;;;6.40;86.70;;;;;;5094198;28;19944;-87
2022/12/01 00:12:53;;;;;;;;;;;6.40;87.30;;;;;;5094450;28;19942;-88
2022/12/01 00:15:19;;;;;;;;;;;6.40;87.30;;;;;;5093592;28;20404;-88
2022/12/01 00:17:46;;;;;;;;;;;6.40;87.20;;;;;;5094151;28;19936;-88
2022/12/01 00:20:12;;;;;;;;;;;6.50;87.10;;;;;;5094073;28;20085;-88
2022/12/01 00:22:40;;;;;;;;;;;6.50;87.10;;;;;;5094099;28;20420;-88
2022/12/01 00:25:06;;;;;;;;;;;6.40;87.20;;;;;;5093881;28;19978;-87
2022/12/01 00:27:31;;;;;;;;;;;6.50;87.10;;;;;;5093992;28;20395;-88
2022/12/01 00:29:57;;;;;;;;;;;6.50;87.20;;;;;;5093953;28;19962;-88
2022/12/01 00:32:23;;;;;;;;;;;6.50;87.30;;;;;;5093884;28;20483;-87
2022/12/01 00:34:48;;;;;;;;;;;6.40;87.20;;;;;;5093523;28;19971;-87
2022/12/01 00:37:14;;;;;;;;;;;6.40;87.20;;;;;;5093652;28;19947;-88
2022/12/01 00:39:40;;;;;;;;;;;6.40;87.20;;;;;;5093789;28;19935;-88
2022/12/01 00:42:05;;;;;;;;;;;6.40;87.30;;;;;;5093729;28;19936;-87
2022/12/01 00:44:31;;;;;;;;;;;6.40;87.30;;;;;;5093720;28;20030;-87
2022/12/01 00:46:56;;;;;;;;;;;6.40;87.20;;;;;;5093687;28;20036;-87
2022/12/01 00:49:22;;;;;;;;;;;6.50;87.20;;;;;;5093603;28;19999;-87
2022/12/01 00:51:48;;;;;;;;;;;6.50;87.00;;;;;;5093563;28;19963;-87
2022/12/01 00:54:13;;;;;;;;;;;6.40;86.80;;;;;;5093644;28;19964;-87
2022/12/01 00:56:39;;;;;;;;;;;6.40;86.90;;;;;;5093500;28;19990;-87
2022/12/01 00:59:04;;;;;;;;;;;6.40;87.10;;;;;;5093471;28;20396;-87
2022/12/01 01:01:30;;;;;;;;;;;6.40;87.10;;;;;;5093169;28;19941;-87
2022/12/01 01:03:56;;;;;;;;;;;6.40;87.80;;;;;;5093682;28;19963;-87
2022/12/01 01:06:22;;;;;;;;;;;6.40;88.10;;;;;;5093321;28;19991;-87
2022/12/01 01:08:47;;;;;;;;;;;6.30;88.00;;;;;;5093381;28;19936;-87
2022/12/01 01:11:13;;;;;;;;;;;6.20;88.30;;;;;;5093191;28;19946;-87
2022/12/01 01:13:38;;;;;;;;;;;6.30;88.00;;;;;;5092630;28;19961;-87
2022/12/01 01:16:05;;;;;;;;;;;6.40;87.80;;;;;;5093212;28;19984;-87
2022/12/01 01:18:31;;;;;;;;;;;6.40;87.50;;;;;;5093284;28;20001;-87
2022/12/01 01:20:57;;;;;;;;;;;6.30;87.60;;;;;;5093229;28;20453;-87
2022/12/01 01:23:23;;;;;;;;;;;6.30;87.80;;;;;;5093097;28;19997;-87
2022/12/01 01:25:48;;;;;;;;;;;6.30;88.10;;;;;;5094120;28;20409;-87
2022/12/01 01:28:14;;;;;;;;;;;6.30;88.20;;;;;;5097450;28;20429;-87
2022/12/01 01:30:39;;;;;;;;;;;6.30;88.10;;;;;;5097223;28;20054;-87
2022/12/01 01:33:05;;;;;;;;;;;6.30;88.30;;;;;;5097292;28;19975;-87
2022/12/01 01:35:30;;;;;;;;;;;6.40;88.60;;;;;;5097327;28;20018;-87
2022/12/01 01:37:56;;;;;;;;;;;6.40;88.40;;;;;;5097272;28;19974;-87
2022/12/01 01:40:22;;;;;;;;;;;6.40;88.30;;;;;;5097211;28;20498;-87
2022/12/01 01:42:47;;;;;;;;;;;6.40;88.10;;;;;;5097152;28;20441;-87
2022/12/01 01:45:23;;;;;;;;;;;6.40;87.80;;;;;;5097383;28;19986;-87
2022/12/01 01:47:50;;;;;;;;;;;6.40;87.90;;;;;;5097335;28;19988;-87
2022/12/01 01:50:17;;;;;;;;;;;6.40;87.90;;;;;;5078780;28;19945;-87
2022/12/01 01:52:52;;;;;;;;;;;6.40;88.10;;;;;;5078491;28;20329;-87
2022/12/01 01:55:18;;;;;;;;;;;6.50;87.90;;;;;;5096889;28;20334;-87
2022/12/01 01:57:44;;;;;;;;;;;6.50;87.80;;;;;;5096600;28;19954;-87
2022/12/01 02:00:12;;;;;;;;;;;6.60;87.70;;;;;;5096878;28;19947;-87
2022/12/01 02:02:39;;;;;;;;;;;6.70;87.70;;;;;;5097044;28;19941;-87
2022/12/01 02:05:09;;;;;;;;;;;6.70;87.50;;;;;;5096764;28;20027;-87
2022/12/01 02:07:38;;;;;;;;;;;6.70;87.80;;;;;;5096723;28;19955;-87
2022/12/01 02:10:05;;;;;;;;;;;6.70;87.50;;;;;;5096875;28;20003;-87
2022/12/01 02:12:44;;;;;;;;;;;6.80;87.30;;;;;;5096603;28;19994;-87
2022/12/01 02:15:18;;;;;;;;;;;6.70;87.30;;;;;;5096031;28;20005;-87
2022/12/01 02:17:51;;;;;;;;;;;6.60;87.60;;;;;;5096326;28;20422;-87
2022/12/01 02:20:22;;;;;;;;;;;6.60;87.10;;;;;;5096443;28;19981;-87
2022/12/01 02:22:54;;;;;;;;;;;6.60;85.90;;;;;;5095965;28;20027;-87
2022/12/01 02:25:25;;;;;;;;;;;6.70;86.00;;;;;;5096396;28;20411;-87
2022/12/01 02:27:54;;;;;;;;;;;6.70;85.70;;;;;;5096307;28;19941;-87
2022/12/01 02:30:38;;;;;;;;;;;6.60;85.60;;;;;;5095768;28;20372;-87
2022/12/01 02:33:12;;;;;;;;;;;6.70;85.30;;;;;;5075851;28;19992;-87
2022/12/01 02:35:44;;;;;;;;;;;6.70;84.80;;;;;;5075875;28;20034;-87
2022/12/01 02:38:13;;;;;;;;;;;6.70;84.80;;;;;;5075171;28;19982;-87
2022/12/01 02:40:50;;;;;;;;;;;6.70;84.90;;;;;;5078385;28;19991;-87
2022/12/01 02:43:31;;;;;;;;;;;6.70;84.60;;;;;;5096282;28;20027;-87
2022/12/01 02:46:09;;;;;;;;;;;6.70;84.60;;;;;;5095914;28;20451;-87
2022/12/01 02:48:37;;;;;;;;;;;6.80;84.70;;;;;;5095906;28;20010;-87
2022/12/01 02:51:27;;;;;;;;;;;6.80;84.30;;;;;;5095589;28;20314;-87
2022/12/01 02:53:54;;;;;;;;;;;6.80;83.90;;;;;;5088169;28;19965;-87
2022/12/01 02:56:21;;;;;;;;;;;6.80;84.00;;;;;;5095769;28;19939;-87
2022/12/01 02:58:46;;;;;;;;;;;6.80;84.00;;;;;;5095724;28;20399;-87
2022/12/01 03:01:31;;;;;;;;;;;6.80;83.90;;;;;;5095415;28;19987;-87
2022/12/01 03:03:59;;;;;;;;;;;6.90;82.70;;;;;;5095668;28;19939;-87
2022/12/01 03:06:37;;;;;;;;;;;6.90;82.00;;;;;;5095588;28;19940;-87
2022/12/01 03:09:03;;;;;;;;;;;6.90;81.70;;;;;;5095509;28;19935;-87
2022/12/01 03:11:41;;;;;;;;;;;6.90;81.50;;;;;;5095386;28;19983;-87
2022/12/01 03:14:18;;;;;;;;;;;6.90;81.50;;;;;;5095335;28;19961;-87
2022/12/01 03:16:50;;;;;;;;;;;6.90;81.60;;;;;;5095316;28;19939;-87
2022/12/01 03:19:22;;;;;;;;;;;7.00;80.80;;;;;;5095330;28;19941;-87
2022/12/01 03:21:51;;;;;;;;;;;7.00;80.70;;;;;;5095125;28;19947;-87
2022/12/01 03:24:18;;;;;;;;;;;6.90;80.70;;;;;;5095056;28;20354;-86
2022/12/01 03:26:45;;;;;;;;;;;7.00;80.50;;;;;;5095123;28;20316;-87
2022/12/01 03:29:22;;;;;;;;;;;7.00;80.80;;;;;;5094870;28;20040;-87
2022/12/01 03:31:51;;;;;;;;;;;7.00;80.50;;;;;;5094881;28;19944;-87
2022/12/01 03:34:27;;;;;;;;;;;7.00;80.30;;;;;;5095231;28;19961;-87
2022/12/01 03:36:58;;;;;;;;;;;7.00;80.20;;;;;;5094988;28;19942;-87
2022/12/01 03:39:26;;;;;;;;;;;7.00;80.20;;;;;;5094590;28;19943;-86
2022/12/01 03:41:55;;;;;;;;;;;7.10;79.90;;;;;;5094901;28;19958;-87
2022/12/01 03:44:24;;;;;;;;;;;7.10;79.50;;;;;;5094858;28;19989;-87
2022/12/01 03:46:49;;;;;;;;;;;7.10;79.40;;;;;;5094763;28;20451;-86
2022/12/01 03:49:16;;;;;;;;;;;7.20;78.70;;;;;;5093452;28;19939;-87
2022/12/01 03:52:02;;;;;;;;;;;7.20;78.50;;;;;;5094635;28;19940;-87
2022/12/01 03:54:36;;;;;;;;;;;7.10;78.80;;;;;;5094015;28;19968;-86
2022/12/01 03:57:04;;;;;;;;;;;7.00;79.00;;;;;;5094603;28;19979;-87
2022/12/01 03:59:30;;;;;;;;;;;7.00;79.40;;;;;;5094257;28;20403;-87
2022/12/01 04:01:56;;;;;;;;;;;6.90;79.40;;;;;;5094357;28;19987;-87
2022/12/01 04:04:22;;;;;;;;;;;6.90;79.50;;;;;;5094463;28;19940;-87
2022/12/01 04:06:49;;;;;;;;;;;6.90;79.30;;;;;;5094379;28;19933;-86
2022/12/01 04:09:14;;;;;;;;;;;7.00;79.00;;;;;;5075759;28;20333;-86
2022/12/01 04:14:25;;;;;;;;;;;6.80;79.40;;;;;;5094354;28;19962;-87
2022/12/01 04:16:50;;;;;;;;;;;6.60;80.70;;;;;;5094212;28;19938;-87
2022/12/01 04:19:16;;;;;;;;;;;6.40;81.30;;;;;;5093969;28;20311;-87
2022/12/01 04:21:41;;;;;;;;;;;6.40;81.20;;;;;;5094179;28;20312;-87
2022/12/01 04:24:07;;;;;;;;;;;6.60;80.60;;;;;;5093932;28;19982;-86
2022/12/01 04:26:34;;;;;;;;;;;6.60;81.00;;;;;;5094022;28;19935;-87
2022/12/01 04:29:01;;;;;;;;;;;6.70;80.40;;;;;;5093979;28;19954;-87
2022/12/01 04:31:26;;;;;;;;;;;6.80;79.70;;;;;;5093866;28;19982;-87
2022/12/01 04:33:56;;;;;;;;;;;6.90;79.90;;;;;;5093816;28;20389;-87
2022/12/01 04:36:22;;;;;;;;;;;6.80;80.10;;;;;;5093827;28;19953;-87
2022/12/01 04:38:47;;;;;;;;;;;6.80;80.00;;;;;;5093579;28;19942;-87
2022/12/01 04:41:13;;;;;;;;;;;6.70;80.00;;;;;;5093770;28;19939;-87
2022/12/01 04:43:39;;;;;;;;;;;6.70;80.20;;;;;;5093780;28;19939;-87
2022/12/01 04:46:05;;;;;;;;;;;6.50;80.40;;;;;;5093674;28;19960;-87
2022/12/01 04:48:30;;;;;;;;;;;6.50;80.60;;;;;;5093390;28;19944;-87
2022/12/01 04:50:56;;;;;;;;;;;6.40;80.60;;;;;;5093626;28;19942;-87
2022/12/01 04:53:22;;;;;;;;;;;6.40;80.90;;;;;;5093561;28;19967;-87
2022/12/01 04:55:47;;;;;;;;;;;6.30;81.10;;;;;;5093556;28;19937;-87
2022/12/01 04:58:13;;;;;;;;;;;6.30;81.30;;;;;;5093299;28;20007;-87
2022/12/01 05:00:38;;;;;;;;;;;6.20;81.10;;;;;;5093248;28;19950;-87
2022/12/01 05:03:04;;;;;;;;;;;6.20;81.10;;;;;;5075401;28;20453;-87
2022/12/01 05:05:30;;;;;;;;;;;6.10;81.50;;;;;;5093411;28;20346;-87
2022/12/01 05:07:57;;;;;;;;;;;6.10;81.00;;;;;;5093104;28;19943;-87
2022/12/01 05:10:23;;;;;;;;;;;6.00;81.20;;;;;;5092792;28;20327;-87
2022/12/01 05:12:48;;;;;;;;;;;6.00;81.20;;;;;;5093418;28;19942;-87
2022/12/01 05:15:14;;;;;;;;;;;6.00;81.20;;;;;;5093220;28;19959;-87
2022/12/01 05:17:40;;;;;;;;;;;6.00;81.20;;;;;;5093299;28;19938;-87
2022/12/01 05:22:51;;;;;;;;;;;6.00;81.40;;;;;;5086612;28;19988;-87
2022/12/01 05:25:17;;;;;;;;;;;5.90;81.50;;;;;;5093234;28;20443;-87
2022/12/01 05:27:42;;;;;;;;;;;5.90;81.80;;;;;;5093175;28;19997;-87
2022/12/01 05:30:08;;;;;;;;;;;5.90;82.00;;;;;;5074777;28;19987;-88
2022/12/01 05:32:34;;;;;;;;;;;5.80;82.90;;;;;;5093133;28;19995;-87
2022/12/01 05:34:59;;;;;;;;;;;5.70;83.80;;;;;;5093089;28;20004;-87
2022/12/01 05:37:25;;;;;;;;;;;5.70;83.90;;;;;;5093144;28;19949;-87
2022/12/01 05:39:50;;;;;;;;;;;5.80;83.60;;;;;;5092863;28;19941;-87
2022/12/01 05:42:16;;;;;;;;;;;5.90;83.00;;;;;;5093036;28;20408;-87
2022/12/01 05:44:41;;;;;;;;;;;6.00;82.60;;;;;;5093039;28;20317;-87
2022/12/01 05:47:07;;;;;;;;;;;6.00;82.40;;;;;;5092751;28;20396;-87
2022/12/01 05:49:32;;;;;;;;;;;6.10;81.80;;;;;;5093013;28;20415;-87
2022/12/01 05:51:58;;;;;;;;;;;6.20;81.30;;;;;;5092871;28;20416;-87
2022/12/01 05:54:23;;;;;;;;;;;6.20;81.40;;;;;;5092752;28;20315;-87
2022/12/01 05:56:49;;;;;;;;;;;6.10;81.60;;;;;;5092717;28;19939;-87
2022/12/01 05:59:14;;;;;;;;;;;6.10;81.80;;;;;;5092917;28;19950;-87
2022/12/01 06:01:40;;;;;;;;;;;6.00;81.90;;;;;;5092808;28;19948;-87
2022/12/01 06:04:05;;;;;;;;;;;5.90;82.00;;;;;;5093083;28;19972;-88
2022/12/01 06:06:31;;;;;;;;;;;5.90;82.20;;;;;;5092815;28;19943;-87
2022/12/01 06:08:56;;;;;;;;;;;5.90;82.80;;;;;;5092033;28;19965;-87
2022/12/01 06:11:22;;;;;;;;;;;6.00;82.20;;;;;;5091837;28;20307;-87
2022/12/01 06:13:47;;;;;;;;;;;6.00;82.20;;;;;;5093616;28;20706;-87
2022/12/01 06:16:13;;;;;;;;;;;5.90;82.90;;;;;;5095059;28;20408;-87
2022/12/01 06:18:39;;;;;;;;;;;5.90;83.00;;;;;;5095125;28;20380;-87
2022/12/01 06:21:05;;;;;;;;;;;5.80;83.00;;;;;;5096249;28;20329;-87
2022/12/01 06:23:31;;;;;;;;;;;5.90;83.40;;;;;;5095657;28;19974;-87
2022/12/01 06:25:57;;;;;;;;;;;6.20;82.50;;;;;;5094730;28;20357;-88
2022/12/01 06:28:22;;;;;;;;;;;6.40;81.70;;;;;;5093211;28;20045;-87
2022/12/01 06:30:48;;;;;;;;;;;6.40;81.20;;;;;;5094691;28;20364;-87
2022/12/01 06:33:13;;;;;;;;;;;6.40;81.60;;;;;;5089287;28;20423;-88
2022/12/01 06:35:39;;;;;;;;;;;6.40;81.70;;;;;;5092134;28;19946;-87
2022/12/01 06:38:04;;;;;;;;;;;6.40;82.10;;;;;;5093827;28;19941;-88
2022/12/01 06:40:30;;;;;;;;;;;6.30;82.40;;;;;;5092580;28;20444;-87
2022/12/01 06:43:00;;;;;;;;;;;6.30;82.40;;;;;;5094290;28;19950;-88
2022/12/01 06:45:26;;;;;;;;;;;6.30;82.50;;;;;;5095117;28;20012;-88
2022/12/01 06:47:55;;;;;;;;;;;6.20;83.00;;;;;;5088557;28;20003;-87
2022/12/01 06:50:21;;;;;;;;;;;6.20;83.10;;;;;;5094024;28;19945;-88
2022/12/01 06:52:46;;;;;;;;;;;6.20;82.60;;;;;;5091013;28;19957;-88
2022/12/01 06:55:12;;;;;;;;;;;6.20;82.60;;;;;;5090851;28;19970;-88
2022/12/01 06:57:38;;;;;;;;;;;6.20;83.20;;;;;;5094966;28;20406;-88
2022/12/01 07:00:03;;;;;;;;;;;6.40;83.60;;;;;;5093051;28;20407;-88
2022/12/01 07:02:29;;;;;;;;;;;6.60;82.70;;;;;;5089274;28;20543;-88
2022/12/01 07:04:55;;;;;;;;;;;6.80;80.20;;;;;;5090565;28;20314;-87
2022/12/01 07:07:20;;;;;;;;;;;6.90;79.80;;;;;;5086248;28;19992;-87
2022/12/01 07:09:46;;;;;;;;;;;6.90;79.30;;;;;;5087416;28;20397;-87
2022/12/01 07:12:11;;;;;;;;;;;7.00;79.50;;;;;;5092859;28;19972;-88
2022/12/01 07:14:37;;;;;;;;;;;7.00;80.30;;;;;;5089043;28;20076;-88
2022/12/01 07:17:02;;;;;;;;;;;7.00;81.10;;;;;;5092026;28;19942;-88
2022/12/01 07:19:28;;;;;;;;;;;7.00;81.10;;;;;;5085447;28;19965;-88
2022/12/01 07:21:53;;;;;;;;;;;6.90;81.20;;;;;;5092103;28;19956;-88
2022/12/01 07:24:19;;;;;;;;;;;6.90;81.20;;;;;;5083931;22;20372;-88
2022/12/01 07:26:44;;;;;;;;;;;6.80;81.70;;;;;;5072633;28;19938;-88
2022/12/01 07:29:10;;;;;;;;;;;6.80;82.10;;;;;;5073184;28;19952;-88
2022/12/01 07:31:36;;;;;;;;;;;6.90;82.30;;;;;;5071456;28;19947;-88
2022/12/01 07:34:02;;;;;;;;;;;7.10;82.10;;;;;;5060100;28;19970;-88
2022/12/01 07:36:27;;;;;;;;;;;7.20;80.10;;;;;;5070582;28;19955;-88
2022/12/01 07:38:53;;;;;;;;;;;7.30;78.20;;;;;;5071406;28;19944;-88
2022/12/01 07:41:19;;;;;;;;;;;7.50;77.00;;;;;;5068852;28;20012;-88
2022/12/01 07:43:44;;;;;;;;;;;7.60;76.90;;;;;;5067907;28;20032;-88
2022/12/01 07:46:11;;;;;;;;;;;7.70;77.10;;;;;;5068379;28;19942;-88
2022/12/01 07:48:38;;;;;;;;;;;7.70;77.10;;;;;;5073235;28;19949;-88
2022/12/01 07:51:03;;;;;;;;;;;7.80;77.90;;;;;;5051872;28;19946;-88
2022/12/01 07:53:29;;;;;;;;;;;7.80;77.60;;;;;;5044959;28;20468;-88
2022/12/01 07:55:55;;;;;;;;;;;7.90;78.10;;;;;;5057332;28;19993;-88
2022/12/01 07:58:20;;;;;;;;;;;7.90;77.90;;;;;;5070624;28;19947;-88
2022/12/01 08:00:46;;;;;;;;;;;8.10;77.20;;;;;;5070376;28;19950;-89
2022/12/01 08:03:12;;;;;;;;;;;8.20;76.40;;;;;;5069983;28;19953;-88
2022/12/01 08:05:37;;;;;;;;;;;8.40;75.90;;;;;;5072272;28;19957;-88
2022/12/01 08:08:03;;;;;;;;;;;8.80;75.60;;;;;;5067477;28;20031;-88
2022/12/01 08:10:28;;;;;;;;;;;8.70;76.20;;;;;;5067788;28;19979;-88
2022/12/01 08:12:54;;;;;;;;;;;8.60;77.10;;;;;;5064315;28;20774;-87
2022/12/01 08:15:19;;;;;;;;;;;8.70;77.70;;;;;;5064245;28;19961;-87
2022/12/01 08:17:45;;;;;;;;;;;8.70;77.70;;;;;;5068183;28;19945;-87
2022/12/01 08:20:11;;;;;;;;;;;8.60;78.60;;;;;;5069568;28;19941;-87
2022/12/01 08:22:37;;;;;;;;;;;8.60;77.40;;;;;;5067298;28;19953;-88
2022/12/01 08:25:03;;;;;;;;;;;8.60;77.00;;;;;;5050252;28;20414;-88
2022/12/01 08:27:28;;;;;;;;;;;8.90;75.90;;;;;;5042849;28;19966;-88
2022/12/01 08:29:54;;;;;;;;;;;9.10;74.60;;;;;;5046917;28;20407;-88
2022/12/01 08:32:19;;;;;;;;;;;9.40;74.10;;;;;;5048984;28;20358;-88
2022/12/01 08:34:45;;;;;;;;;;;9.50;74.20;;;;;;5045914;28;19971;-88
2022/12/01 08:37:10;;;;;;;;;;;9.80;73.10;;;;;;5023064;28;19950;-88
2022/12/01 08:39:36;;;;;;;;;;;9.70;71.30;;;;;;5046826;28;19950;-88
2022/12/01 08:42:01;;;;;;;;;;;9.50;71.40;;;;;;5052147;28;20315;-88
2022/12/01 08:44:27;;;;;;;;;;;9.40;70.80;;;;;;5048711;28;19953;-88
2022/12/01 08:46:53;;;;;;;;;;;9.40;70.50;;;;;;5052372;28;19954;-88
2022/12/01 08:49:18;;;;;;;;;;;9.40;71.10;;;;;;5049131;28;19951;-88
2022/12/01 08:51:44;;;;;;;;;;;9.60;70.40;;;;;;5051673;28;19974;-88
2022/12/01 08:54:10;;;;;;;;;;;9.60;70.20;;;;;;5049985;28;19987;-88
2022/12/01 08:56:37;;;;;;;;;;;9.50;71.60;;;;;;5045117;28;19960;-88
2022/12/01 08:59:03;;;;;;;;;;;9.80;70.90;;;;;;5049723;28;19963;-88
2022/12/01 09:01:28;;;;;;;;;;;10.20;67.90;;;;;;5050278;28;19978;-88
2022/12/01 09:04:04;;;;;;;;;;;10.40;66.40;;;;;;5047330;28;19944;-88
2022/12/01 09:06:30;;;;;;;;;;;10.60;64.70;;;;;;5044080;28;19942;-88
2022/12/01 09:08:57;;;;;;;;;;;10.70;64.40;;;;;;5046718;28;19970;-88
2022/12/01 09:11:23;;;;;;;;;;;10.70;63.90;;;;;;5045700;28;20332;-88
2022/12/01 09:13:48;;;;;;;;;;;10.50;64.50;;;;;;5047210;28;19961;-88
2022/12/01 09:16:15;;;;;;;;;;;10.50;64.80;;;;;;5048724;28;19949;-88
2022/12/01 09:18:41;;;;;;;;;;;10.50;63.80;;;;;;5049665;28;19945;-88
2022/12/01 09:21:10;;;;;;;;;;;10.40;63.80;;;;;;5047469;28;20448;-88
2022/12/01 09:23:35;;;;;;;;;;;10.60;63.80;;;;;;5058979;28;19971;-88
2022/12/01 09:26:01;;;;;;;;;;;10.70;63.20;;;;;;5068258;28;20454;-88
2022/12/01 09:28:26;;;;;;;;;;;11.00;63.10;;;;;;5070264;28;20394;-88
2022/12/01 09:30:52;;;;;;;;;;;11.30;61.50;;;;;;5065401;28;19950;-88
2022/12/01 09:33:17;;;;;;;;;;;11.40;60.50;;;;;;5063944;28;19951;-88
2022/12/01 09:35:43;;;;;;;;;;;11.60;60.90;;;;;;5064558;28;19949;-88
2022/12/01 09:38:08;;;;;;;;;;;11.90;60.60;;;;;;5070449;28;19942;-88
2022/12/01 09:40:35;;;;;;;;;;;12.20;59.30;;;;;;5070488;28;20387;-88
2022/12/01 09:43:03;;;;;;;;;;;12.40;57.60;;;;;;5062421;28;19951;-87
2022/12/01 09:45:30;;;;;;;;;;;12.00;57.80;;;;;;5063484;28;19987;-87
2022/12/01 09:47:57;;;;;;;;;;;11.70;59.00;;;;;;5068425;28;20417;-87
2022/12/01 09:50:24;;;;;;;;;;;11.70;59.70;;;;;;5059056;28;19941;-88
2022/12/01 09:52:52;;;;;;;;;;;11.50;59.80;;;;;;5069950;28;19970;-87
2022/12/01 09:55:18;;;;;;;;;;;11.40;60.20;;;;;;5073093;28;19945;-87
2022/12/01 09:57:48;;;;;;;;;;;11.70;57.60;;;;;;5073771;28;19991;-88
2022/12/01 10:00:15;;;;;;;;;;;11.90;57.70;;;;;;5054665;28;19949;-87
2022/12/01 10:02:46;;;;;;;;;;;12.00;58.40;;;;;;5067462;28;19946;-88
2022/12/01 10:05:14;;;;;;;;;;;12.20;57.30;;;;;;5070004;28;20023;-87
2022/12/01 10:07:43;;;;;;;;;;;12.20;57.60;;;;;;5071287;28;19948;-87
2022/12/01 10:10:13;;;;;;;;;;;12.20;55.80;;;;;;5068600;28;19950;-87
2022/12/01 10:12:41;;;;;;;;;;;12.10;57.20;;;;;;5067783;28;19950;-87
2022/12/01 10:15:26;;;;;;;;;;;12.10;55.70;;;;;;5072731;28;19996;-87
2022/12/01 10:17:51;;;;;;;;;;;12.00;57.60;;;;;;5071845;28;19940;-87
2022/12/01 10:20:35;;;;;;;;;;;11.60;58.50;;;;;;5071085;28;19969;-87
2022/12/01 10:23:19;;;;;;;;;;;11.40;58.60;;;;;;5066553;28;20066;-87
2022/12/01 10:25:48;;;;;;;;;;;11.40;58.50;;;;;;5047956;28;19947;-87
2022/12/01 10:28:16;;;;;;;;;;;11.50;58.50;;;;;;5053838;28;20232;-87
2022/12/01 10:30:52;;;;;;;;;;;11.50;59.60;;;;;;5054038;28;19967;-87
2022/12/01 10:33:20;;;;;;;;;;;11.80;58.10;;;;;;5055813;28;20012;-87
2022/12/01 10:35:46;;;;;;;;;;;12.20;54.00;;;;;;5051074;28;19949;-87
2022/12/01 10:38:13;;;;;;;;;;;12.40;54.20;;;;;;5044903;28;20397;-87
2022/12/01 10:40:39;;;;;;;;;;;12.50;54.30;;;;;;5052335;28;19946;-87
2022/12/01 10:43:08;;;;;;;;;;;12.60;52.50;;;;;;5052539;28;19952;-87
2022/12/01 10:45:36;;;;;;;;;;;12.70;51.50;;;;;;5050495;28;19944;-87
2022/12/01 10:48:10;;;;;;;;;;;12.80;51.50;;;;;;5052903;28;19995;-87
2022/12/01 10:50:36;;;;;;;;;;;13.10;51.50;;;;;;5049971;28;19985;-87
2022/12/01 10:53:02;;;;;;;;;;;12.90;52.60;;;;;;5053322;28;19987;-87
2022/12/01 10:55:38;;;;;;;;;;;12.40;53.60;;;;;;5052103;28;19957;-87
2022/12/01 10:58:11;;;;;;;;;;;12.30;53.40;;;;;;5051164;28;19953;-87
2022/12/01 11:00:37;;;;;;;;;;;12.40;51.80;;;;;;5048364;28;19950;-87
2022/12/01 11:03:03;;;;;;;;;;;12.60;52.70;;;;;;5051322;28;19951;-87
2022/12/01 11:05:31;;;;;;;;;;;12.70;52.20;;;;;;5048713;28;20953;-87
2022/12/01 11:07:57;;;;;;;;;;;12.90;51.80;;;;;;5054655;28;19949;-87
2022/12/01 11:10:25;;;;;;;;;;;13.10;52.40;;;;;;5053279;28;19943;-87
2022/12/01 11:13:11;;;;;;;;;;;13.30;52.00;;;;;;5055091;28;19939;-87
2022/12/01 11:15:38;;;;;;;;;;;13.20;50.70;;;;;;5044165;28;19973;-87
2022/12/01 11:18:05;;;;;;;;;;;13.10;51.70;;;;;;5054696;28;19949;-87
2022/12/01 11:20:32;;;;;;;;;;;12.90;52.30;;;;;;5055078;28;19950;-87
2022/12/01 11:23:17;;;;;;;;;;;13.00;53.40;;;;;;5058231;28;20016;-88
2022/12/01 11:26:00;;;;;;;;;;;13.10;53.50;;;;;;5075016;28;19954;-88
2022/12/01 11:28:26;;;;;;;;;;;13.30;51.40;;;;;;5074671;28;20052;-87
2022/12/01 11:31:00;;;;;;;;;;;13.60;51.10;;;;;;5074832;28;19946;-87
2022/12/01 11:33:26;;;;;;;;;;;13.80;50.80;;;;;;5074761;28;19936;-88
2022/12/01 11:35:52;;;;;;;;;;;13.90;50.80;;;;;;5074812;28;19942;-88
2022/12/01 11:38:22;;;;;;;;;;;14.10;51.20;;;;;;5074442;28;19946;-88
2022/12/01 11:40:51;;;;;;;;;;;14.30;49.70;;;;;;5074379;28;19979;-88
2022/12/01 11:43:23;;;;;;;;;;;14.40;50.00;;;;;;5074426;28;19950;-88
2022/12/01 11:45:48;;;;;;;;;;;14.40;50.00;;;;;;5074658;28;20063;-88
2022/12/01 11:48:24;;;;;;;;;;;14.50;49.20;;;;;;5074473;28;19975;-88
2022/12/01 11:51:05;;;;;;;;;;;14.50;49.50;;;;;;5074682;28;20039;-87
2022/12/01 11:53:33;;;;;;;;;;;14.00;49.30;;;;;;5061491;28;20109;-87
2022/12/01 11:56:19;;;;;;;;;;;13.70;50.00;;;;;;5054415;28;19959;-87
2022/12/01 11:58:46;;;;;;;;;;;13.40;51.00;;;;;;5059436;28;19971;-88
2022/12/01 12:01:18;;;;;;;;;;;13.30;50.90;;;;;;5074256;28;20394;-88
2022/12/01 12:04:00;;;;;;;;;;;13.30;50.30;;;;;;5073823;28;20000;-88
2022/12/01 12:06:33;;;;;;;;;;;13.60;49.80;;;;;;5054148;28;19943;-88
2022/12/01 12:09:17;;;;;;;;;;;14.00;50.10;;;;;;5061406;28;19958;-88
2022/12/01 12:11:59;;;;;;;;;;;14.10;50.60;;;;;;5073162;28;20040;-88
2022/12/01 12:14:24;;;;;;;;;;;14.70;49.40;;;;;;5073825;28;19963;-88
2022/12/01 12:17:05;;;;;;;;;;;15.10;47.90;;;;;;5073927;28;19946;-87
2022/12/01 12:19:43;;;;;;;;;;;14.90;46.90;;;;;;5073723;28;20004;-88
2022/12/01 12:22:27;;;;;;;;;;;15.20;47.80;;;;;;5073468;28;20395;-88
2022/12/01 12:25:19;;;;;;;;;;;15.10;47.20;;;;;;5072525;28;19973;-87
2022/12/01 12:27:50;;;;;;;;;;;14.90;47.50;;;;;;5057207;28;19951;-88
2022/12/01 12:30:19;;;;;;;;;;;14.90;48.70;;;;;;5063299;28;19955;-87
2022/12/01 12:33:03;;;;;;;;;;;15.00;48.60;;;;;;5067927;28;19950;-88
2022/12/01 12:35:36;;;;;;;;;;;15.20;48.50;;;;;;5068671;28;19967;-88
2022/12/01 12:38:01;;;;;;;;;;;15.50;46.70;;;;;;5070021;28;19971;-88
2022/12/01 12:40:34;;;;;;;;;;;15.80;46.80;;;;;;5069443;28;19984;-89
2022/12/01 12:43:02;;;;;;;;;;;16.40;45.00;;;;;;5071296;28;19966;-89
2022/12/01 12:45:28;;;;;;;;;;;16.50;44.70;;;;;;5066511;28;19946;-89
2022/12/01 12:48:05;;;;;;;;;;;16.80;42.20;;;;;;5071427;28;19950;-89
2022/12/01 12:50:43;;;;;;;;;;;16.70;42.80;;;;;;5068986;28;19942;-88
2022/12/01 12:53:13;;;;;;;;;;;16.60;43.80;;;;;;5068412;28;20473;-89
2022/12/01 12:55:40;;;;;;;;;;;16.60;44.40;;;;;;5071629;28;19979;-89
2022/12/01 12:58:09;;;;;;;;;;;16.40;44.30;;;;;;5068964;28;20039;-88
2022/12/01 13:00:37;;;;;;;;;;;15.40;46.00;;;;;;5072320;28;19942;-88
2022/12/01 13:03:06;;;;;;;;;;;14.80;48.50;;;;;;5072866;28;19996;-88
2022/12/01 13:05:39;;;;;;;;;;;14.60;47.70;;;;;;5069151;28;19946;-88
2022/12/01 13:08:07;;;;;;;;;;;14.50;48.10;;;;;;5071611;28;19946;-88
2022/12/01 13:10:35;;;;;;;;;;;14.40;47.80;;;;;;5071188;28;19952;-88
2022/12/01 13:13:19;;;;;;;;;;;14.00;48.90;;;;;;5071399;28;19947;-88
2022/12/01 13:15:46;;;;;;;;;;;13.70;49.90;;;;;;5069060;28;19955;-88
2022/12/01 13:18:21;;;;;;;;;;;13.30;50.80;;;;;;5070294;28;19966;-88
2022/12/01 13:20:47;;;;;;;;;;;13.40;51.80;;;;;;5070143;28;19984;-89
2022/12/01 13:23:15;;;;;;;;;;;13.70;51.90;;;;;;5065341;28;20071;-89
2022/12/01 13:25:41;;;;;;;;;;;13.90;51.20;;;;;;5067276;28;20057;-88
2022/12/01 13:28:14;;;;;;;;;;;14.00;50.80;;;;;;5067789;28;19987;-88
2022/12/01 13:30:39;;;;;;;;;;;13.90;51.00;;;;;;5068280;28;19944;-88
2022/12/01 13:33:05;;;;;;;;;;;13.60;51.00;;;;;;5070784;28;19950;-88
2022/12/01 13:35:32;;;;;;;;;;;13.70;52.00;;;;;;5069967;28;19946;-88
2022/12/01 13:38:13;;;;;;;;;;;13.60;51.40;;;;;;5053649;28;20068;-88
2022/12/01 13:40:39;;;;;;;;;;;13.20;52.60;;;;;;5071889;28;19946;-88
2022/12/01 13:43:05;;;;;;;;;;;12.90;53.40;;;;;;5071769;28;19946;-88
2022/12/01 13:45:35;;;;;;;;;;;12.70;55.30;;;;;;5070997;28;19968;-88
2022/12/01 13:48:02;;;;;;;;;;;12.50;55.10;;;;;;5071986;28;19950;-89
2022/12/01 13:50:41;;;;;;;;;;;12.50;55.90;;;;;;5071103;28;20620;-89
2022/12/01 13:53:27;;;;;;;;;;;12.50;54.90;;;;;;5070222;28;19981;-89
2022/12/01 13:56:02;;;;;;;;;;;12.60;55.20;;;;;;5064413;28;19957;-89
2022/12/01 13:58:33;;;;;;;;;;;12.80;55.00;;;;;;5068897;28;20329;-88
2022/12/01 14:01:17;;;;;;;;;;;13.00;54.70;;;;;;5071597;28;20403;-89
2022/12/01 14:03:50;;;;;;;;;;;13.00;54.40;;;;;;5067967;28;19951;-89
2022/12/01 14:06:24;;;;;;;;;;;13.00;55.30;;;;;;5069050;28;19942;-89
2022/12/01 14:08:52;;;;;;;;;;;12.90;55.50;;;;;;5058686;28;19946;-89
2022/12/01 14:11:25;;;;;;;;;;;12.80;59.00;;;;;;5071985;28;19954;-88
2022/12/01 14:13:55;;;;;;;;;;;12.50;57.90;;;;;;5068710;28;20412;-88
2022/12/01 14:16:21;;;;;;;;;;;12.40;59.30;;;;;;5066045;28;19964;-89
2022/12/01 14:18:52;;;;;;;;;;;12.20;60.20;;;;;;5067639;28;19954;-88
2022/12/01 14:21:38;;;;;;;;;;;11.80;60.90;;;;;;5069385;28;19950;-89
2022/12/01 14:24:04;;;;;;;;;;;11.80;61.80;;;;;;5062551;28;20518;-89
2022/12/01 14:26:41;;;;;;;;;;;11.70;62.00;;;;;;5069971;28;20371;-89
2022/12/01 14:29:08;;;;;;;;;;;11.70;60.40;;;;;;5068816;28;19987;-89
2022/12/01 14:31:34;;;;;;;;;;;11.80;61.30;;;;;;5069769;28;19987;-89
2022/12/01 14:34:13;;;;;;;;;;;11.90;62.70;;;;;;5053163;28;20052;-89
2022/12/01 14:36:53;;;;;;;;;;;12.00;63.50;;;;;;5071402;28;20468;-89
2022/12/01 14:39:26;;;;;;;;;;;12.10;59.30;;;;;;5072425;28;20278;-88